sensor_id;sensor_type;location;lat;lon;timestamp;temperature;humidity
71668;DHT22;59504;54.806;9.640;2023-07-20T00:01:26;13.00;69.10
71668;DHT22;59504;54.806;9.640;2023-07-20T00:03:30;13.00;68.90
71668;DHT22;59504;54.806;9.640;2023-07-20T00:05:30;13.00;69.00
71668;DHT22;59504;54.806;9.640;2023-07-20T00:07:31;12.90;68.80
71668;DHT22;59504;54.806;9.640;2023-07-20T00:09:32;12.80;68.70
71668;DHT22;59504;54.806;9.640;2023-07-20T00:11:35;12.80;69.20
71668;DHT22;59504;54.806;9.640;2023-07-20T00:13:36;12.80;69.40
71668;DHT22;59504;54.806;9.640;2023-07-20T00:15:37;12.80;69.40
71668;DHT22;59504;54.806;9.640;2023-07-20T00:17:38;12.70;69.40
71668;DHT22;59504;54.806;9.640;2023-07-20T00:19:40;12.80;70.60
71668;DHT22;59504;54.806;9.640;2023-07-20T00:21:41;12.80;69.80
71668;DHT22;59504;54.806;9.640;2023-07-20T00:23:43;12.70;70.10
71668;DHT22;59504;54.806;9.640;2023-07-20T00:25:43;12.70;70.20
71668;DHT22;59504;54.806;9.640;2023-07-20T00:27:44;12.70;70.40
71668;DHT22;59504;54.806;9.640;2023-07-20T00:29:44;12.70;70.20
71668;DHT22;59504;54.806;9.640;2023-07-20T00:31:46;12.70;70.10
71668;DHT22;59504;54.806;9.640;2023-07-20T00:33:52;12.70;70.70
71668;DHT22;59504;54.806;9.640;2023-07-20T00:35:52;12.60;70.70
71668;DHT22;59504;54.806;9.640;2023-07-20T00:37:53;12.50;70.90
71668;DHT22;59504;54.806;9.640;2023-07-20T00:39:54;12.60;71.20
71668;DHT22;59504;54.806;9.640;2023-07-20T00:41:54;12.60;71.30
71668;DHT22;59504;54.806;9.640;2023-07-20T00:44:16;12.60;70.80
71668;DHT22;59504;54.806;9.640;2023-07-20T00:46:16;12.50;71.20
71668;DHT22;59504;54.806;9.640;2023-07-20T00:48:17;12.50;70.80
71668;DHT22;59504;54.806;9.640;2023-07-20T00:50:18;12.50;71.00
71668;DHT22;59504;54.806;9.640;2023-07-20T00:52:20;12.40;70.80
71668;DHT22;59504;54.806;9.640;2023-07-20T00:54:21;12.40;71.00
71668;DHT22;59504;54.806;9.640;2023-07-20T00:56:22;12.40;71.30
71668;DHT22;59504;54.806;9.640;2023-07-20T00:58:23;12.40;71.10
71668;DHT22;59504;54.806;9.640;2023-07-20T01:00:24;12.40;71.30
71668;DHT22;59504;54.806;9.640;2023-07-20T01:02:24;12.40;71.50
71668;DHT22;59504;54.806;9.640;2023-07-20T01:04:25;12.30;71.70
71668;DHT22;59504;54.806;9.640;2023-07-20T01:06:36;12.30;71.90
71668;DHT22;59504;54.806;9.640;2023-07-20T01:10:54;12.30;71.40
71668;DHT22;59504;54.806;9.640;2023-07-20T01:12:56;12.30;71.70
71668;DHT22;59504;54.806;9.640;2023-07-20T01:14:57;12.20;71.70
71668;DHT22;59504;54.806;9.640;2023-07-20T01:16:58;12.30;72.30
71668;DHT22;59504;54.806;9.640;2023-07-20T01:18:58;12.30;72.10
71668;DHT22;59504;54.806;9.640;2023-07-20T01:20:59;12.20;72.30
71668;DHT22;59504;54.806;9.640;2023-07-20T01:23:18;12.20;72.40
71668;DHT22;59504;54.806;9.640;2023-07-20T01:25:31;12.20;72.70
71668;DHT22;59504;54.806;9.640;2023-07-20T01:32:00;12.10;72.50
71668;DHT22;59504;54.806;9.640;2023-07-20T01:34:03;12.10;72.30
71668;DHT22;59504;54.806;9.640;2023-07-20T01:36:06;12.10;72.30
71668;DHT22;59504;54.806;9.640;2023-07-20T01:38:11;12.10;72.10
71668;DHT22;59504;54.806;9.640;2023-07-20T01:40:13;12.00;71.90
71668;DHT22;59504;54.806;9.640;2023-07-20T01:42:15;12.00;71.80
71668;DHT22;59504;54.806;9.640;2023-07-20T01:44:15;12.00;71.70
71668;DHT22;59504;54.806;9.640;2023-07-20T01:46:16;12.00;71.60
71668;DHT22;59504;54.806;9.640;2023-07-20T01:48:17;12.10;71.60
71668;DHT22;59504;54.806;9.640;2023-07-20T01:50:17;12.10;71.60
71668;DHT22;59504;54.806;9.640;2023-07-20T01:52:18;12.00;71.70
71668;DHT22;59504;54.806;9.640;2023-07-20T01:54:18;12.00;71.50
71668;DHT22;59504;54.806;9.640;2023-07-20T01:56:19;12.00;71.60
71668;DHT22;59504;54.806;9.640;2023-07-20T01:58:19;12.10;71.80
71668;DHT22;59504;54.806;9.640;2023-07-20T02:00:20;12.00;71.90
71668;DHT22;59504;54.806;9.640;2023-07-20T02:02:26;12.00;72.40
71668;DHT22;59504;54.806;9.640;2023-07-20T02:04:26;12.00;72.30
71668;DHT22;59504;54.806;9.640;2023-07-20T02:06:27;12.00;72.20
71668;DHT22;59504;54.806;9.640;2023-07-20T02:08:28;12.10;72.50
71668;DHT22;59504;54.806;9.640;2023-07-20T02:10:29;12.00;72.40
71668;DHT22;59504;54.806;9.640;2023-07-20T02:12:29;12.00;72.30
71668;DHT22;59504;54.806;9.640;2023-07-20T02:14:30;12.10;72.20
71668;DHT22;59504;54.806;9.640;2023-07-20T02:16:30;12.00;72.80
71668;DHT22;59504;54.806;9.640;2023-07-20T02:18:31;12.00;72.80
71668;DHT22;59504;54.806;9.640;2023-07-20T02:20:32;12.00;72.90
71668;DHT22;59504;54.806;9.640;2023-07-20T02:22:32;12.10;73.00
71668;DHT22;59504;54.806;9.640;2023-07-20T02:24:36;12.10;72.80
71668;DHT22;59504;54.806;9.640;2023-07-20T02:26:37;12.00;73.00
71668;DHT22;59504;54.806;9.640;2023-07-20T02:28:37;12.10;73.10
71668;DHT22;59504;54.806;9.640;2023-07-20T02:30:38;12.00;73.10
71668;DHT22;59504;54.806;9.640;2023-07-20T02:32:39;12.00;72.90
71668;DHT22;59504;54.806;9.640;2023-07-20T02:34:40;12.00;72.80
71668;DHT22;59504;54.806;9.640;2023-07-20T02:36:41;12.10;73.40
71668;DHT22;59504;54.806;9.640;2023-07-20T02:38:43;12.10;74.20
71668;DHT22;59504;54.806;9.640;2023-07-20T02:40:44;12.00;73.30
71668;DHT22;59504;54.806;9.640;2023-07-20T02:42:44;12.10;73.50
71668;DHT22;59504;54.806;9.640;2023-07-20T02:44:45;12.10;73.60
71668;DHT22;59504;54.806;9.640;2023-07-20T02:46:46;12.00;73.30
71668;DHT22;59504;54.806;9.640;2023-07-20T02:48:47;12.10;73.10
71668;DHT22;59504;54.806;9.640;2023-07-20T02:50:47;12.00;73.00
71668;DHT22;59504;54.806;9.640;2023-07-20T02:52:48;12.00;73.30
71668;DHT22;59504;54.806;9.640;2023-07-20T02:54:49;12.00;73.30
71668;DHT22;59504;54.806;9.640;2023-07-20T02:56:49;12.00;73.00
71668;DHT22;59504;54.806;9.640;2023-07-20T02:58:50;12.00;72.80
71668;DHT22;59504;54.806;9.640;2023-07-20T03:00:51;12.00;72.60
71668;DHT22;59504;54.806;9.640;2023-07-20T03:02:51;12.00;72.90
71668;DHT22;59504;54.806;9.640;2023-07-20T03:04:56;12.00;72.70
71668;DHT22;59504;54.806;9.640;2023-07-20T03:06:57;12.10;72.40
71668;DHT22;59504;54.806;9.640;2023-07-20T03:09:00;12.10;72.60
71668;DHT22;59504;54.806;9.640;2023-07-20T03:11:01;12.00;72.50
71668;DHT22;59504;54.806;9.640;2023-07-20T03:13:01;12.00;73.30
71668;DHT22;59504;54.806;9.640;2023-07-20T03:15:05;12.00;72.60
71668;DHT22;59504;54.806;9.640;2023-07-20T03:17:06;11.90;72.60
71668;DHT22;59504;54.806;9.640;2023-07-20T03:19:11;11.90;72.60
71668;DHT22;59504;54.806;9.640;2023-07-20T03:21:12;11.90;72.80
71668;DHT22;59504;54.806;9.640;2023-07-20T03:23:12;11.90;72.60
71668;DHT22;59504;54.806;9.640;2023-07-20T03:25:13;11.90;72.60
71668;DHT22;59504;54.806;9.640;2023-07-20T03:27:14;11.90;72.40
71668;DHT22;59504;54.806;9.640;2023-07-20T03:29:14;11.90;72.60
71668;DHT22;59504;54.806;9.640;2023-07-20T03:31:19;11.90;72.50
71668;DHT22;59504;54.806;9.640;2023-07-20T03:33:22;11.80;72.50
71668;DHT22;59504;54.806;9.640;2023-07-20T03:35:23;11.90;72.60
71668;DHT22;59504;54.806;9.640;2023-07-20T03:37:24;11.90;72.80
71668;DHT22;59504;54.806;9.640;2023-07-20T03:39:24;11.90;73.00
71668;DHT22;59504;54.806;9.640;2023-07-20T03:41:25;11.90;72.80
71668;DHT22;59504;54.806;9.640;2023-07-20T03:43:27;11.90;72.70
71668;DHT22;59504;54.806;9.640;2023-07-20T03:45:28;11.90;73.00
71668;DHT22;59504;54.806;9.640;2023-07-20T03:47:29;11.90;73.20
71668;DHT22;59504;54.806;9.640;2023-07-20T03:49:32;11.80;73.30
71668;DHT22;59504;54.806;9.640;2023-07-20T03:51:33;11.80;73.10
71668;DHT22;59504;54.806;9.640;2023-07-20T03:53:46;11.90;73.30
71668;DHT22;59504;54.806;9.640;2023-07-20T03:55:50;11.80;73.20
71668;DHT22;59504;54.806;9.640;2023-07-20T03:57:51;11.80;73.20
71668;DHT22;59504;54.806;9.640;2023-07-20T03:59:55;11.80;73.40
71668;DHT22;59504;54.806;9.640;2023-07-20T04:01:59;11.80;73.70
71668;DHT22;59504;54.806;9.640;2023-07-20T04:04:00;11.90;74.00
71668;DHT22;59504;54.806;9.640;2023-07-20T04:06:20;11.80;73.90
71668;DHT22;59504;54.806;9.640;2023-07-20T04:08:41;11.90;73.90
71668;DHT22;59504;54.806;9.640;2023-07-20T04:11:02;12.00;74.30
71668;DHT22;59504;54.806;9.640;2023-07-20T04:13:22;12.10;74.30
71668;DHT22;59504;54.806;9.640;2023-07-20T04:15:43;12.00;73.50
71668;DHT22;59504;54.806;9.640;2023-07-20T04:18:03;12.20;73.50
71668;DHT22;59504;54.806;9.640;2023-07-20T04:20:24;12.20;72.70
71668;DHT22;59504;54.806;9.640;2023-07-20T04:22:45;12.20;72.70
71668;DHT22;59504;54.806;9.640;2023-07-20T04:25:06;12.30;73.30
71668;DHT22;59504;54.806;9.640;2023-07-20T04:27:27;12.20;73.50
71668;DHT22;59504;54.806;9.640;2023-07-20T04:29:47;12.40;73.30
71668;DHT22;59504;54.806;9.640;2023-07-20T04:32:08;12.30;73.00
71668;DHT22;59504;54.806;9.640;2023-07-20T04:34:29;12.40;73.20
71668;DHT22;59504;54.806;9.640;2023-07-20T04:36:49;12.40;73.50
71668;DHT22;59504;54.806;9.640;2023-07-20T04:39:10;12.50;73.40
71668;DHT22;59504;54.806;9.640;2023-07-20T04:41:30;12.50;72.70
71668;DHT22;59504;54.806;9.640;2023-07-20T04:43:51;12.60;73.00
71668;DHT22;59504;54.806;9.640;2023-07-20T04:45:52;12.60;73.00
71668;DHT22;59504;54.806;9.640;2023-07-20T04:47:52;12.60;73.10
71668;DHT22;59504;54.806;9.640;2023-07-20T04:49:53;12.60;73.60
71668;DHT22;59504;54.806;9.640;2023-07-20T04:51:54;12.60;73.70
71668;DHT22;59504;54.806;9.640;2023-07-20T04:53:55;12.60;73.80
71668;DHT22;59504;54.806;9.640;2023-07-20T04:55:55;12.70;73.60
71668;DHT22;59504;54.806;9.640;2023-07-20T04:57:56;12.60;73.40
71668;DHT22;59504;54.806;9.640;2023-07-20T04:59:57;12.60;73.30
71668;DHT22;59504;54.806;9.640;2023-07-20T05:01:57;12.60;73.30
71668;DHT22;59504;54.806;9.640;2023-07-20T05:03:58;12.70;73.30
71668;DHT22;59504;54.806;9.640;2023-07-20T05:05:59;12.70;73.50
71668;DHT22;59504;54.806;9.640;2023-07-20T05:08:00;12.80;74.00
71668;DHT22;59504;54.806;9.640;2023-07-20T05:10:20;12.70;74.50
71668;DHT22;59504;54.806;9.640;2023-07-20T05:12:21;12.90;74.90
71668;DHT22;59504;54.806;9.640;2023-07-20T05:14:42;12.80;74.70
71668;DHT22;59504;54.806;9.640;2023-07-20T05:17:03;12.90;75.70
71668;DHT22;59504;54.806;9.640;2023-07-20T05:19:24;13.00;76.10
71668;DHT22;59504;54.806;9.640;2023-07-20T05:21:45;13.10;77.30
71668;DHT22;59504;54.806;9.640;2023-07-20T05:24:05;13.10;77.20
71668;DHT22;59504;54.806;9.640;2023-07-20T05:26:26;13.30;77.00
71668;DHT22;59504;54.806;9.640;2023-07-20T05:28:47;13.30;76.50
71668;DHT22;59504;54.806;9.640;2023-07-20T05:30:47;13.50;77.20
71668;DHT22;59504;54.806;9.640;2023-07-20T05:32:48;13.50;77.10
71668;DHT22;59504;54.806;9.640;2023-07-20T05:34:52;13.60;77.30
71668;DHT22;59504;54.806;9.640;2023-07-20T05:36:53;13.70;77.00
71668;DHT22;59504;54.806;9.640;2023-07-20T05:38:53;13.80;77.40
71668;DHT22;59504;54.806;9.640;2023-07-20T05:40:58;13.80;77.80
71668;DHT22;59504;54.806;9.640;2023-07-20T05:42:59;14.00;77.00
71668;DHT22;59504;54.806;9.640;2023-07-20T05:45:01;14.00;76.40
71668;DHT22;59504;54.806;9.640;2023-07-20T05:47:01;14.10;76.10
71668;DHT22;59504;54.806;9.640;2023-07-20T05:49:06;14.10;76.00
71668;DHT22;59504;54.806;9.640;2023-07-20T05:51:07;14.20;76.70
71668;DHT22;59504;54.806;9.640;2023-07-20T05:53:10;14.30;76.80
71668;DHT22;59504;54.806;9.640;2023-07-20T05:55:11;14.40;76.20
71668;DHT22;59504;54.806;9.640;2023-07-20T05:57:11;14.60;75.30
71668;DHT22;59504;54.806;9.640;2023-07-20T05:59:12;14.70;75.10
71668;DHT22;59504;54.806;9.640;2023-07-20T06:01:13;14.70;74.50
71668;DHT22;59504;54.806;9.640;2023-07-20T06:03:22;14.70;73.60
71668;DHT22;59504;54.806;9.640;2023-07-20T06:05:24;14.80;73.20
71668;DHT22;59504;54.806;9.640;2023-07-20T06:07:24;14.80;73.10
71668;DHT22;59504;54.806;9.640;2023-07-20T06:09:53;14.90;73.10
71668;DHT22;59504;54.806;9.640;2023-07-20T06:11:54;14.90;72.50
71668;DHT22;59504;54.806;9.640;2023-07-20T06:13:56;15.00;73.00
71668;DHT22;59504;54.806;9.640;2023-07-20T06:16:17;15.00;72.40
71668;DHT22;59504;54.806;9.640;2023-07-20T06:18:38;15.10;72.10
71668;DHT22;59504;54.806;9.640;2023-07-20T06:20:52;15.10;72.10
71668;DHT22;59504;54.806;9.640;2023-07-20T06:22:53;15.20;72.30
71668;DHT22;59504;54.806;9.640;2023-07-20T06:25:14;15.20;72.80
71668;DHT22;59504;54.806;9.640;2023-07-20T06:27:34;15.40;73.10
71668;DHT22;59504;54.806;9.640;2023-07-20T06:29:38;15.40;73.10
71668;DHT22;59504;54.806;9.640;2023-07-20T06:31:58;15.40;72.50
71668;DHT22;59504;54.806;9.640;2023-07-20T06:34:19;15.60;71.70
71668;DHT22;59504;54.806;9.640;2023-07-20T06:36:20;15.50;71.20
71668;DHT22;59504;54.806;9.640;2023-07-20T06:38:21;15.50;70.70
71668;DHT22;59504;54.806;9.640;2023-07-20T06:40:23;15.60;70.70
71668;DHT22;59504;54.806;9.640;2023-07-20T06:42:24;15.50;70.70
71668;DHT22;59504;54.806;9.640;2023-07-20T06:44:25;15.60;71.00
71668;DHT22;59504;54.806;9.640;2023-07-20T06:46:27;15.70;71.10
71668;DHT22;59504;54.806;9.640;2023-07-20T06:48:30;15.60;71.00
71668;DHT22;59504;54.806;9.640;2023-07-20T06:50:36;15.60;70.60
71668;DHT22;59504;54.806;9.640;2023-07-20T06:52:37;15.70;70.60
71668;DHT22;59504;54.806;9.640;2023-07-20T06:54:38;15.80;70.80
71668;DHT22;59504;54.806;9.640;2023-07-20T06:56:38;15.70;71.40
71668;DHT22;59504;54.806;9.640;2023-07-20T06:58:39;15.80;70.50
71668;DHT22;59504;54.806;9.640;2023-07-20T07:00:40;15.90;70.30
71668;DHT22;59504;54.806;9.640;2023-07-20T07:02:40;15.80;69.90
71668;DHT22;59504;54.806;9.640;2023-07-20T07:04:41;15.90;69.90
71668;DHT22;59504;54.806;9.640;2023-07-20T07:06:42;15.80;69.80
71668;DHT22;59504;54.806;9.640;2023-07-20T07:09:06;15.80;69.90
71668;DHT22;59504;54.806;9.640;2023-07-20T07:11:21;15.80;70.00
71668;DHT22;59504;54.806;9.640;2023-07-20T07:13:24;15.80;70.40
71668;DHT22;59504;54.806;9.640;2023-07-20T07:15:45;15.90;70.40
71668;DHT22;59504;54.806;9.640;2023-07-20T07:18:06;15.90;70.50
71668;DHT22;59504;54.806;9.640;2023-07-20T07:20:27;16.00;70.70
71668;DHT22;59504;54.806;9.640;2023-07-20T07:22:49;16.00;70.70
71668;DHT22;59504;54.806;9.640;2023-07-20T07:25:10;16.00;70.60
71668;DHT22;59504;54.806;9.640;2023-07-20T07:27:31;16.10;70.60
71668;DHT22;59504;54.806;9.640;2023-07-20T07:29:51;16.20;69.90
71668;DHT22;59504;54.806;9.640;2023-07-20T07:32:15;16.30;69.60
71668;DHT22;59504;54.806;9.640;2023-07-20T07:34:36;16.30;69.60
71668;DHT22;59504;54.806;9.640;2023-07-20T07:36:57;16.30;69.40
71668;DHT22;59504;54.806;9.640;2023-07-20T07:39:20;16.40;69.00
71668;DHT22;59504;54.806;9.640;2023-07-20T07:41:44;16.40;68.70
71668;DHT22;59504;54.806;9.640;2023-07-20T07:44:05;16.50;68.90
71668;DHT22;59504;54.806;9.640;2023-07-20T07:46:26;16.60;68.90
71668;DHT22;59504;54.806;9.640;2023-07-20T07:48:55;16.60;68.30
71668;DHT22;59504;54.806;9.640;2023-07-20T07:50:56;16.70;67.80
71668;DHT22;59504;54.806;9.640;2023-07-20T07:55:43;16.80;67.50
71668;DHT22;59504;54.806;9.640;2023-07-20T07:57:44;16.90;67.70
71668;DHT22;59504;54.806;9.640;2023-07-20T07:59:45;17.00;67.60
71668;DHT22;59504;54.806;9.640;2023-07-20T08:06:32;17.20;65.90
71668;DHT22;59504;54.806;9.640;2023-07-20T08:08:52;17.30;65.40
71668;DHT22;59504;54.806;9.640;2023-07-20T08:11:13;17.30;65.50
71668;DHT22;59504;54.806;9.640;2023-07-20T08:13:15;17.40;64.90
71668;DHT22;59504;54.806;9.640;2023-07-20T08:15:35;17.40;64.10
71668;DHT22;59504;54.806;9.640;2023-07-20T08:20:59;17.40;62.80
71668;DHT22;59504;54.806;9.640;2023-07-20T08:23:39;17.50;62.70
71668;DHT22;59504;54.806;9.640;2023-07-20T08:25:59;17.50;63.50
71668;DHT22;59504;54.806;9.640;2023-07-20T08:28:21;17.60;63.70
71668;DHT22;59504;54.806;9.640;2023-07-20T08:31:00;17.60;62.90
71668;DHT22;59504;54.806;9.640;2023-07-20T08:33:01;17.60;63.00
71668;DHT22;59504;54.806;9.640;2023-07-20T08:35:01;17.70;63.10
71668;DHT22;59504;54.806;9.640;2023-07-20T08:37:11;17.60;62.90
71668;DHT22;59504;54.806;9.640;2023-07-20T08:39:11;17.60;62.70
71668;DHT22;59504;54.806;9.640;2023-07-20T08:41:12;17.50;62.60
71668;DHT22;59504;54.806;9.640;2023-07-20T08:43:14;17.50;63.40
71668;DHT22;59504;54.806;9.640;2023-07-20T08:45:38;17.40;62.70
71668;DHT22;59504;54.806;9.640;2023-07-20T08:48:00;17.40;63.30
71668;DHT22;59504;54.806;9.640;2023-07-20T08:50:20;17.30;64.00
71668;DHT22;59504;54.806;9.640;2023-07-20T08:52:41;17.30;64.50
71668;DHT22;59504;54.806;9.640;2023-07-20T08:55:02;17.20;64.40
71668;DHT22;59504;54.806;9.640;2023-07-20T08:57:25;17.30;64.50
71668;DHT22;59504;54.806;9.640;2023-07-20T08:59:46;17.30;64.40
71668;DHT22;59504;54.806;9.640;2023-07-20T09:02:07;17.30;64.50
71668;DHT22;59504;54.806;9.640;2023-07-20T09:04:29;17.30;64.80
71668;DHT22;59504;54.806;9.640;2023-07-20T09:06:49;17.40;64.50
71668;DHT22;59504;54.806;9.640;2023-07-20T09:09:10;17.50;64.40
71668;DHT22;59504;54.806;9.640;2023-07-20T09:11:12;17.60;64.50
71668;DHT22;59504;54.806;9.640;2023-07-20T09:13:14;17.50;64.30
71668;DHT22;59504;54.806;9.640;2023-07-20T09:15:14;17.60;64.10
71668;DHT22;59504;54.806;9.640;2023-07-20T09:17:15;17.70;63.60
71668;DHT22;59504;54.806;9.640;2023-07-20T09:19:16;17.80;62.00
71668;DHT22;59504;54.806;9.640;2023-07-20T09:21:17;17.80;62.00
71668;DHT22;59504;54.806;9.640;2023-07-20T09:23:18;17.80;61.40
71668;DHT22;59504;54.806;9.640;2023-07-20T09:25:18;17.80;61.40
71668;DHT22;59504;54.806;9.640;2023-07-20T09:27:22;17.80;61.60
71668;DHT22;59504;54.806;9.640;2023-07-20T09:29:29;17.90;61.40
71668;DHT22;59504;54.806;9.640;2023-07-20T09:31:30;17.90;61.50
71668;DHT22;59504;54.806;9.640;2023-07-20T09:33:31;18.00;61.80
71668;DHT22;59504;54.806;9.640;2023-07-20T09:35:31;18.10;61.90
71668;DHT22;59504;54.806;9.640;2023-07-20T09:37:32;18.10;61.60
71668;DHT22;59504;54.806;9.640;2023-07-20T09:39:35;18.10;61.40
71668;DHT22;59504;54.806;9.640;2023-07-20T09:41:44;18.20;61.20
71668;DHT22;59504;54.806;9.640;2023-07-20T09:46:49;18.30;61.40
71668;DHT22;59504;54.806;9.640;2023-07-20T09:49:09;18.40;60.60
71668;DHT22;59504;54.806;9.640;2023-07-20T09:51:29;18.30;60.60
71668;DHT22;59504;54.806;9.640;2023-07-20T09:53:52;18.40;61.00
71668;DHT22;59504;54.806;9.640;2023-07-20T09:56:13;18.50;60.40
71668;DHT22;59504;54.806;9.640;2023-07-20T09:58:35;18.30;60.00
71668;DHT22;59504;54.806;9.640;2023-07-20T10:00:52;18.30;60.20
71668;DHT22;59504;54.806;9.640;2023-07-20T10:02:58;18.20;60.50
71668;DHT22;59504;54.806;9.640;2023-07-20T10:05:02;18.10;60.10
71668;DHT22;59504;54.806;9.640;2023-07-20T10:07:04;18.00;60.40
71668;DHT22;59504;54.806;9.640;2023-07-20T10:09:05;17.90;60.60
71668;DHT22;59504;54.806;9.640;2023-07-20T10:11:07;17.80;60.90
71668;DHT22;59504;54.806;9.640;2023-07-20T10:13:13;17.70;61.10
71668;DHT22;59504;54.806;9.640;2023-07-20T10:15:24;17.70;61.20
71668;DHT22;59504;54.806;9.640;2023-07-20T10:17:25;17.60;61.40
71668;DHT22;59504;54.806;9.640;2023-07-20T10:21:47;17.50;63.60
71668;DHT22;59504;54.806;9.640;2023-07-20T10:23:48;17.50;63.90
71668;DHT22;59504;54.806;9.640;2023-07-20T10:25:50;17.50;65.30
71668;DHT22;59504;54.806;9.640;2023-07-20T10:28:00;17.60;65.10
71668;DHT22;59504;54.806;9.640;2023-07-20T10:30:21;17.60;65.10
71668;DHT22;59504;54.806;9.640;2023-07-20T10:32:42;17.60;64.90
71668;DHT22;59504;54.806;9.640;2023-07-20T10:34:43;17.60;64.40
71668;DHT22;59504;54.806;9.640;2023-07-20T10:37:10;17.60;64.10
71668;DHT22;59504;54.806;9.640;2023-07-20T10:39:31;17.70;63.00
71668;DHT22;59504;54.806;9.640;2023-07-20T10:41:59;17.70;62.10
71668;DHT22;59504;54.806;9.640;2023-07-20T10:44:01;17.70;60.20
71668;DHT22;59504;54.806;9.640;2023-07-20T10:46:01;17.80;58.80
71668;DHT22;59504;54.806;9.640;2023-07-20T10:48:03;17.80;58.80
71668;DHT22;59504;54.806;9.640;2023-07-20T10:50:04;17.80;57.00
71668;DHT22;59504;54.806;9.640;2023-07-20T10:52:07;17.80;57.80
71668;DHT22;59504;54.806;9.640;2023-07-20T10:56:20;17.90;57.70
71668;DHT22;59504;54.806;9.640;2023-07-20T10:58:41;17.90;57.30
71668;DHT22;59504;54.806;9.640;2023-07-20T11:01:03;18.00;57.20
71668;DHT22;59504;54.806;9.640;2023-07-20T11:03:34;18.00;56.50
71668;DHT22;59504;54.806;9.640;2023-07-20T11:05:56;18.00;56.40
71668;DHT22;59504;54.806;9.640;2023-07-20T11:08:37;18.10;57.00
71668;DHT22;59504;54.806;9.640;2023-07-20T11:10:37;18.20;56.50
71668;DHT22;59504;54.806;9.640;2023-07-20T11:12:38;18.20;56.20
71668;DHT22;59504;54.806;9.640;2023-07-20T11:14:42;18.30;56.80
71668;DHT22;59504;54.806;9.640;2023-07-20T11:16:44;18.40;56.50
71668;DHT22;59504;54.806;9.640;2023-07-20T11:18:45;18.40;56.40
71668;DHT22;59504;54.806;9.640;2023-07-20T11:20:49;18.40;56.50
71668;DHT22;59504;54.806;9.640;2023-07-20T11:22:50;18.50;56.20
71668;DHT22;59504;54.806;9.640;2023-07-20T11:24:55;18.60;56.60
71668;DHT22;59504;54.806;9.640;2023-07-20T11:26:58;18.60;56.70
71668;DHT22;59504;54.806;9.640;2023-07-20T11:29:01;18.70;55.90
71668;DHT22;59504;54.806;9.640;2023-07-20T11:31:21;18.80;56.10
71668;DHT22;59504;54.806;9.640;2023-07-20T11:33:42;18.90;55.60
71668;DHT22;59504;54.806;9.640;2023-07-20T11:36:03;18.90;54.60
71668;DHT22;59504;54.806;9.640;2023-07-20T11:38:23;19.00;54.60
71668;DHT22;59504;54.806;9.640;2023-07-20T11:40:45;19.00;54.10
71668;DHT22;59504;54.806;9.640;2023-07-20T11:43:05;19.10;53.90
71668;DHT22;59504;54.806;9.640;2023-07-20T11:45:27;19.10;53.70
71668;DHT22;59504;54.806;9.640;2023-07-20T11:47:53;19.20;54.40
71668;DHT22;59504;54.806;9.640;2023-07-20T11:49:54;19.20;53.40
71668;DHT22;59504;54.806;9.640;2023-07-20T11:51:54;19.20;52.90
71668;DHT22;59504;54.806;9.640;2023-07-20T11:53:56;19.10;52.60
71668;DHT22;59504;54.806;9.640;2023-07-20T11:56:00;19.20;52.90
71668;DHT22;59504;54.806;9.640;2023-07-20T11:58:04;19.10;52.60
71668;DHT22;59504;54.806;9.640;2023-07-20T12:00:25;19.00;52.00
71668;DHT22;59504;54.806;9.640;2023-07-20T12:02:45;18.90;52.80
71668;DHT22;59504;54.806;9.640;2023-07-20T12:05:06;18.90;52.40
71668;DHT22;59504;54.806;9.640;2023-07-20T12:07:28;18.80;52.60
71668;DHT22;59504;54.806;9.640;2023-07-20T12:10:08;18.70;53.20
71668;DHT22;59504;54.806;9.640;2023-07-20T12:12:34;18.60;53.20
71668;DHT22;59504;54.806;9.640;2023-07-20T12:15:11;18.50;53.50
71668;DHT22;59504;54.806;9.640;2023-07-20T12:17:14;18.40;53.70
71668;DHT22;59504;54.806;9.640;2023-07-20T12:19:15;18.40;53.80
71668;DHT22;59504;54.806;9.640;2023-07-20T12:21:16;18.40;54.20
71668;DHT22;59504;54.806;9.640;2023-07-20T12:23:19;18.30;54.50
71668;DHT22;59504;54.806;9.640;2023-07-20T12:25:20;18.30;55.00
71668;DHT22;59504;54.806;9.640;2023-07-20T12:27:21;18.20;54.80
71668;DHT22;59504;54.806;9.640;2023-07-20T12:29:21;18.20;55.30
71668;DHT22;59504;54.806;9.640;2023-07-20T12:31:22;18.20;55.40
71668;DHT22;59504;54.806;9.640;2023-07-20T12:33:24;18.20;55.40
71668;DHT22;59504;54.806;9.640;2023-07-20T12:35:25;18.30;55.30
71668;DHT22;59504;54.806;9.640;2023-07-20T12:37:26;18.40;55.80
71668;DHT22;59504;54.806;9.640;2023-07-20T12:39:47;18.40;55.90
71668;DHT22;59504;54.806;9.640;2023-07-20T12:42:07;18.40;55.40
71668;DHT22;59504;54.806;9.640;2023-07-20T12:44:28;18.50;56.00
71668;DHT22;59504;54.806;9.640;2023-07-20T12:46:49;18.60;55.90
71668;DHT22;59504;54.806;9.640;2023-07-20T12:49:09;18.50;55.60
71668;DHT22;59504;54.806;9.640;2023-07-20T12:51:30;18.50;55.40
71668;DHT22;59504;54.806;9.640;2023-07-20T12:53:50;18.60;55.90
71668;DHT22;59504;54.806;9.640;2023-07-20T12:56:11;18.60;55.40
71668;DHT22;59504;54.806;9.640;2023-07-20T12:58:31;18.60;55.40
71668;DHT22;59504;54.806;9.640;2023-07-20T13:00:52;18.60;55.00
71668;DHT22;59504;54.806;9.640;2023-07-20T13:03:13;18.70;55.00
71668;DHT22;59504;54.806;9.640;2023-07-20T13:05:34;18.70;55.00
71668;DHT22;59504;54.806;9.640;2023-07-20T13:07:55;18.70;55.00
71668;DHT22;59504;54.806;9.640;2023-07-20T13:10:16;18.80;54.40
71668;DHT22;59504;54.806;9.640;2023-07-20T13:12:38;18.80;54.30
71668;DHT22;59504;54.806;9.640;2023-07-20T13:14:38;18.80;54.70
71668;DHT22;59504;54.806;9.640;2023-07-20T13:16:39;18.90;54.70
71668;DHT22;59504;54.806;9.640;2023-07-20T13:18:40;18.80;54.70
71668;DHT22;59504;54.806;9.640;2023-07-20T13:20:40;18.90;54.10
71668;DHT22;59504;54.806;9.640;2023-07-20T13:22:44;18.90;53.60
71668;DHT22;59504;54.806;9.640;2023-07-20T13:24:45;18.90;53.70
71668;DHT22;59504;54.806;9.640;2023-07-20T13:26:49;19.00;53.60
71668;DHT22;59504;54.806;9.640;2023-07-20T13:28:50;19.00;53.60
71668;DHT22;59504;54.806;9.640;2023-07-20T13:30:50;19.00;53.50
71668;DHT22;59504;54.806;9.640;2023-07-20T13:32:51;19.10;54.20
71668;DHT22;59504;54.806;9.640;2023-07-20T13:34:56;19.10;54.10
71668;DHT22;59504;54.806;9.640;2023-07-20T13:37:00;19.20;54.00
71668;DHT22;59504;54.806;9.640;2023-07-20T13:39:01;19.20;53.50
71668;DHT22;59504;54.806;9.640;2023-07-20T13:41:25;19.20;53.40
71668;DHT22;59504;54.806;9.640;2023-07-20T13:43:45;19.20;53.40
71668;DHT22;59504;54.806;9.640;2023-07-20T13:46:06;19.30;53.40
71668;DHT22;59504;54.806;9.640;2023-07-20T13:48:29;19.20;53.30
71668;DHT22;59504;54.806;9.640;2023-07-20T13:50:50;19.20;53.30
71668;DHT22;59504;54.806;9.640;2023-07-20T13:53:11;19.20;53.60
71668;DHT22;59504;54.806;9.640;2023-07-20T13:55:33;19.10;53.90